createdAt,value
2022-10-11T00:00:49.971Z,9.50
2022-10-11T00:03:17.379Z,9.44
2022-10-11T00:05:44.425Z,9.40
2022-10-11T00:08:13.080Z,9.36
2022-10-11T00:10:40.482Z,9.30
2022-10-11T00:13:08.099Z,9.24
2022-10-11T00:15:35.142Z,9.19
2022-10-11T00:18:05.226Z,9.13
2022-10-11T00:20:32.454Z,9.08
2022-10-11T00:22:59.422Z,9.02
2022-10-11T00:25:26.293Z,8.98
2022-10-11T00:27:53.282Z,8.90
2022-10-11T00:30:20.282Z,8.88
2022-10-11T00:32:47.314Z,8.86
2022-10-11T00:35:14.773Z,8.84
2022-10-11T00:37:42.231Z,8.83
2022-10-11T00:40:14.012Z,8.84
2022-10-11T00:42:41.029Z,8.87
2022-10-11T00:45:26.602Z,8.87
2022-10-11T00:47:56.311Z,8.85
2022-10-11T00:50:23.895Z,8.86
2022-10-11T00:52:55.481Z,8.85
2022-10-11T00:55:22.926Z,8.88
2022-10-11T00:57:52.929Z,8.89
2022-10-11T01:00:20.412Z,8.92
2022-10-11T01:02:47.413Z,8.94
2022-10-11T01:05:30.769Z,8.95
2022-10-11T01:08:01.083Z,8.98
2022-10-11T01:10:28.765Z,9.00
2022-10-11T01:13:21.715Z,9.01
2022-10-11T01:16:08.645Z,9.03
2022-10-11T01:18:59.541Z,9.04
2022-10-11T01:21:35.282Z,9.07
2022-10-11T01:24:28.875Z,9.08
2022-10-11T01:27:26.673Z,9.14
2022-10-11T01:30:04.583Z,9.22
2022-10-11T01:32:42.503Z,9.29
2022-10-11T01:35:31.051Z,9.38
2022-10-11T01:38:08.911Z,9.47
2022-10-11T01:40:57.865Z,9.55
2022-10-11T01:43:26.072Z,9.66
2022-10-11T01:45:54.899Z,9.71
2022-10-11T01:48:22.193Z,9.75
2022-10-11T01:50:51.863Z,9.79
2022-10-11T01:53:44.353Z,9.84
2022-10-11T01:56:36.035Z,9.84
2022-10-11T01:59:28.628Z,9.80
2022-10-11T02:02:24.174Z,9.77
2022-10-11T02:05:03.319Z,9.77
2022-10-11T02:07:39.461Z,9.76
2022-10-11T02:10:15.491Z,9.75
2022-10-11T02:13:09.861Z,9.74
2022-10-11T02:15:39.613Z,9.77
2022-10-11T02:18:11.223Z,9.77
2022-10-11T02:20:40.653Z,9.77
2022-10-11T02:23:11.448Z,9.75
2022-10-11T02:25:39.616Z,9.80
2022-10-11T02:28:11.485Z,9.93
2022-10-11T02:30:38.350Z,10.08
2022-10-11T02:33:07.819Z,10.14
2022-10-11T02:35:39.491Z,10.13
2022-10-11T02:38:15.862Z,10.09
2022-10-11T02:40:45.317Z,10.05
2022-10-11T02:43:24.177Z,10.08
2022-10-11T02:45:57.921Z,10.15
2022-10-11T02:48:25.408Z,10.27
2022-10-11T02:50:54.215Z,10.35
2022-10-11T02:53:21.366Z,10.44
2022-10-11T02:55:49.581Z,10.53
2022-10-11T02:58:16.477Z,10.61
2022-10-11T03:00:43.985Z,10.72
2022-10-11T03:03:11.055Z,10.77
2022-10-11T03:05:41.609Z,10.85
2022-10-11T03:08:10.169Z,10.92
2022-10-11T03:10:38.176Z,10.99
2022-10-11T03:13:05.712Z,11.04
2022-10-11T03:15:32.824Z,11.04
2022-10-11T03:17:59.826Z,11.09
2022-10-11T03:20:26.823Z,11.07
2022-10-11T03:22:53.923Z,11.05
2022-10-11T03:25:20.833Z,11.08
2022-10-11T03:27:47.891Z,11.12
2022-10-11T03:30:18.392Z,11.18
2022-10-11T03:32:45.910Z,11.21
2022-10-11T03:35:12.837Z,11.27
2022-10-11T03:37:39.812Z,11.16
2022-10-11T03:40:08.458Z,11.10
2022-10-11T03:42:36.021Z,11.06
2022-10-11T03:45:08.046Z,11.07
2022-10-11T03:47:36.523Z,11.13
2022-10-11T03:50:05.530Z,11.20
2022-10-11T03:52:32.490Z,11.30
2022-10-11T03:54:59.559Z,11.34
2022-10-11T03:57:26.638Z,11.37
2022-10-11T03:59:53.672Z,11.41
2022-10-11T04:02:21.452Z,11.42
2022-10-11T04:04:50.091Z,11.41
2022-10-11T04:07:17.368Z,11.42
2022-10-11T04:09:44.378Z,11.40
2022-10-11T04:12:11.511Z,11.48
2022-10-11T04:14:38.392Z,11.49
2022-10-11T04:17:05.371Z,11.51
2022-10-11T04:19:32.378Z,11.48
2022-10-11T04:22:00.020Z,11.51
2022-10-11T04:24:27.084Z,11.46
2022-10-11T04:26:54.221Z,11.40
2022-10-11T04:29:21.542Z,11.40
2022-10-11T04:31:48.583Z,11.36
2022-10-11T04:34:15.791Z,11.39
2022-10-11T04:36:45.309Z,11.42
2022-10-11T04:39:16.055Z,11.35
2022-10-11T04:41:42.942Z,11.32
2022-10-11T04:44:09.908Z,11.25
2022-10-11T04:46:36.811Z,11.19
2022-10-11T04:49:03.746Z,11.11
2022-10-11T04:51:30.833Z,11.05
2022-10-11T04:53:57.766Z,11.06
2022-10-11T04:56:24.741Z,11.07
2022-10-11T04:58:54.280Z,11.04
2022-10-11T05:01:21.866Z,10.95
2022-10-11T05:03:49.610Z,10.97
2022-10-11T05:06:16.593Z,11.00
2022-10-11T05:08:43.671Z,10.97
2022-10-11T05:11:15.797Z,10.93
2022-10-11T05:13:44.552Z,10.91
2022-10-11T05:16:12.114Z,10.89
2022-10-11T05:18:39.859Z,10.81
2022-10-11T05:21:16.074Z,10.80
2022-10-11T05:23:43.465Z,10.84
2022-10-11T05:26:10.639Z,10.83
2022-10-11T05:28:37.873Z,10.89
2022-10-11T05:31:05.076Z,10.92
2022-10-11T05:33:32.416Z,10.93
2022-10-11T05:35:59.415Z,10.93
2022-10-11T05:38:26.656Z,10.84
2022-10-11T05:40:53.627Z,10.76
2022-10-11T05:43:20.683Z,10.74
2022-10-11T05:45:47.641Z,10.68
2022-10-11T05:48:14.659Z,10.62
2022-10-11T05:50:41.606Z,10.62
2022-10-11T05:53:08.667Z,10.62
2022-10-11T05:55:39.600Z,10.62
2022-10-11T05:58:07.578Z,10.67
2022-10-11T06:00:38.141Z,10.69
2022-10-11T06:03:09.059Z,10.71
2022-10-11T06:05:36.307Z,10.73
2022-10-11T06:08:06.100Z,10.77
2022-10-11T06:10:33.455Z,10.82
2022-10-11T06:13:00.405Z,10.88
2022-10-11T06:15:27.534Z,10.97
2022-10-11T06:17:54.565Z,11.02
2022-10-11T06:20:22.040Z,10.99
2022-10-11T06:22:48.988Z,10.98
2022-10-11T06:25:16.116Z,10.99
2022-10-11T06:27:43.069Z,11.00
2022-10-11T06:30:10.511Z,11.07
2022-10-11T06:32:37.475Z,11.13
2022-10-11T06:35:05.631Z,11.16
2022-10-11T06:37:32.593Z,11.13
2022-10-11T06:39:59.601Z,11.14
2022-10-11T06:42:26.601Z,11.18
2022-10-11T06:44:53.500Z,11.20
2022-10-11T06:47:20.492Z,11.27
2022-10-11T06:49:47.402Z,11.26
2022-10-11T06:52:14.516Z,11.32
2022-10-11T06:54:44.891Z,11.33
2022-10-11T06:57:12.722Z,11.36
2022-10-11T06:59:39.661Z,11.41
2022-10-11T07:02:07.081Z,11.44
2022-10-11T07:04:34.116Z,11.44
2022-10-11T07:07:01.362Z,11.48
2022-10-11T07:09:28.294Z,11.56
2022-10-11T07:11:55.392Z,11.61
2022-10-11T07:14:22.331Z,11.66
2022-10-11T07:16:49.253Z,11.69
2022-10-11T07:19:16.296Z,11.73
2022-10-11T07:21:43.269Z,11.80
2022-10-11T07:24:10.304Z,11.90
2022-10-11T07:26:52.159Z,12.00
2022-10-11T07:29:19.184Z,11.98
2022-10-11T07:31:46.149Z,12.01
2022-10-11T07:34:13.158Z,12.04
2022-10-11T07:36:40.402Z,12.11
2022-10-11T07:39:08.065Z,12.17
2022-10-11T07:41:35.503Z,12.24
2022-10-11T07:44:03.364Z,12.25
2022-10-11T07:46:30.955Z,12.26
2022-10-11T07:48:58.029Z,12.30
2022-10-11T07:51:25.715Z,12.32
2022-10-11T07:53:57.052Z,12.34
2022-10-11T07:56:28.666Z,12.39
2022-10-11T07:58:58.023Z,12.47
2022-10-11T08:01:26.413Z,12.48
2022-10-11T08:03:54.103Z,12.51
2022-10-11T08:06:23.170Z,12.53
2022-10-11T08:08:50.401Z,12.59
2022-10-11T08:11:26.307Z,12.59
2022-10-11T08:13:53.444Z,12.62
2022-10-11T08:16:20.598Z,12.71
2022-10-11T08:18:47.860Z,12.75
2022-10-11T08:21:17.201Z,12.80
2022-10-11T08:23:44.400Z,12.85
2022-10-11T08:26:11.545Z,12.93
2022-10-11T08:28:38.956Z,12.92
2022-10-11T08:31:06.700Z,12.82
2022-10-11T08:33:34.114Z,12.77
2022-10-11T08:36:06.002Z,12.78
2022-10-11T08:38:34.009Z,12.78
2022-10-11T08:41:01.587Z,12.92
2022-10-11T08:43:49.769Z,12.90
2022-10-11T08:46:17.152Z,12.91
2022-10-11T08:48:50.062Z,13.02
2022-10-11T08:51:23.341Z,13.18
2022-10-11T08:54:07.611Z,13.32
2022-10-11T08:56:40.010Z,13.41
2022-10-11T08:59:13.144Z,13.51
2022-10-11T09:02:20.495Z,13.69
2022-10-11T09:04:52.668Z,13.81
2022-10-11T09:07:28.878Z,13.92
2022-10-11T09:10:31.512Z,13.85
2022-10-11T09:13:11.260Z,13.61
2022-10-11T09:15:56.672Z,13.38
2022-10-11T09:18:41.184Z,13.27
2022-10-11T09:21:46.353Z,13.33
2022-10-11T09:24:38.111Z,13.61
2022-10-11T09:27:25.890Z,13.93
2022-10-11T09:30:10.066Z,14.06
2022-10-11T09:32:40.133Z,14.03
2022-10-11T09:35:18.669Z,13.91
2022-10-11T09:38:15.839Z,13.75
2022-10-11T09:41:04.899Z,13.65
2022-10-11T09:43:31.953Z,13.66
2022-10-11T09:45:58.944Z,13.55
2022-10-11T09:48:33.645Z,13.34
2022-10-11T09:51:07.449Z,13.26
2022-10-11T09:53:57.229Z,13.13
2022-10-11T09:56:26.451Z,13.19
2022-10-11T09:59:30.733Z,13.04
2022-10-11T10:02:16.698Z,12.89
2022-10-11T10:05:05.264Z,12.94
2022-10-11T10:07:34.351Z,13.03
2022-10-11T10:10:40.108Z,13.15
2022-10-11T10:13:22.777Z,13.22
2022-10-11T10:15:53.636Z,13.33
2022-10-11T10:18:47.014Z,13.42
2022-10-11T10:21:15.744Z,13.56
2022-10-11T10:23:43.514Z,13.57
2022-10-11T10:26:20.022Z,13.61
2022-10-11T10:29:09.052Z,13.74
2022-10-11T10:34:40.460Z,13.84
2022-10-11T10:37:27.766Z,13.88
2022-10-11T10:40:07.957Z,14.08
2022-10-11T10:42:35.027Z,14.28
2022-10-11T10:45:02.163Z,14.45
2022-10-11T10:47:59.893Z,14.69
2022-10-11T10:50:51.124Z,14.68
2022-10-11T10:53:26.491Z,14.63
2022-10-11T10:56:11.090Z,14.62
2022-10-11T10:58:56.796Z,14.61
2022-10-11T11:01:25.556Z,14.55
2022-10-11T11:04:17.185Z,14.43
2022-10-11T11:06:51.591Z,14.23
2022-10-11T11:09:54.657Z,14.01
2022-10-11T11:12:40.344Z,13.75
2022-10-11T11:15:15.941Z,13.69
2022-10-11T11:18:20.434Z,13.71
2022-10-11T11:20:53.009Z,13.76
2022-10-11T11:23:32.092Z,13.76
2022-10-11T11:26:22.111Z,13.80
2022-10-11T11:29:11.120Z,13.88
2022-10-11T11:31:53.131Z,14.10
2022-10-11T11:34:29.137Z,14.13
2022-10-11T11:37:00.160Z,13.90
2022-10-11T11:39:34.978Z,13.59
2022-10-11T11:42:07.874Z,13.38
2022-10-11T11:44:47.399Z,13.25
2022-10-11T11:47:22.632Z,13.20
2022-10-11T11:49:56.100Z,13.22
2022-10-11T11:52:47.392Z,13.29
2022-10-11T11:55:23.755Z,13.35
2022-10-11T11:58:16.593Z,13.41
2022-10-11T12:00:56.833Z,13.47
2022-10-11T12:03:51.454Z,13.62
2022-10-11T12:06:22.455Z,13.65
2022-10-11T12:09:35.709Z,13.76
2022-10-11T12:12:07.602Z,13.67
2022-10-11T12:14:34.560Z,13.66
2022-10-11T12:17:17.840Z,13.59
2022-10-11T12:20:12.429Z,13.63
2022-10-11T12:23:03.603Z,13.67
2022-10-11T12:25:35.399Z,13.65
2022-10-11T12:28:49.257Z,13.62
2022-10-11T12:31:22.631Z,13.56
2022-10-11T12:33:54.044Z,13.53
2022-10-11T12:36:43.631Z,13.57
2022-10-11T12:39:19.895Z,13.63
2022-10-11T12:41:55.498Z,13.73
2022-10-11T12:44:27.471Z,13.85
2022-10-11T12:46:54.347Z,13.86
2022-10-11T12:50:12.119Z,13.68
2022-10-11T12:53:04.536Z,13.69
2022-10-11T12:56:09.748Z,13.74
2022-10-11T12:58:44.143Z,13.76
2022-10-11T13:01:13.295Z,13.70
2022-10-11T13:03:42.670Z,13.55
2022-10-11T13:06:18.073Z,13.48
2022-10-11T13:08:49.581Z,13.46
2022-10-11T13:11:23.060Z,13.45
2022-10-11T13:14:06.360Z,13.46
2022-10-11T13:16:58.787Z,13.50
2022-10-11T13:19:26.967Z,13.53
2022-10-11T13:21:57.230Z,13.52
2022-10-11T13:24:25.553Z,13.46
2022-10-11T13:26:55.794Z,13.33
2022-10-11T13:29:56.375Z,13.30
2022-10-11T13:32:30.273Z,13.37
2022-10-11T13:35:01.253Z,13.40
2022-10-11T13:37:29.873Z,13.44
2022-10-11T13:39:57.933Z,13.35
2022-10-11T13:42:30.082Z,13.14
2022-10-11T13:44:57.939Z,12.94
2022-10-11T13:47:32.142Z,12.70
2022-10-11T13:50:08.152Z,12.49
2022-10-11T13:52:35.253Z,12.35
2022-10-11T13:55:05.995Z,12.26
2022-10-11T13:57:37.791Z,12.16
2022-10-11T14:00:34.857Z,12.12
2022-10-11T14:03:16.278Z,12.13
2022-10-11T14:06:04.021Z,12.14
2022-10-11T14:08:40.025Z,12.13
2022-10-11T14:11:07.846Z,12.14
2022-10-11T14:13:42.591Z,12.11
2022-10-11T14:16:12.967Z,12.13
2022-10-11T14:18:51.373Z,12.10
2022-10-11T14:21:24.144Z,12.06
2022-10-11T14:24:03.819Z,11.95
2022-10-11T14:26:35.289Z,11.84
2022-10-11T14:29:06.584Z,11.77
2022-10-11T14:31:41.533Z,11.76
2022-10-11T14:34:16.009Z,11.81
2022-10-11T14:36:45.651Z,11.87
2022-10-11T14:39:17.136Z,11.90
2022-10-11T14:41:45.188Z,11.90
2022-10-11T14:44:12.787Z,11.93
2022-10-11T14:46:41.375Z,11.94
2022-10-11T14:49:23.170Z,11.96
2022-10-11T14:51:51.163Z,11.99
2022-10-11T14:54:22.420Z,12.03
2022-10-11T14:56:51.140Z,11.97
2022-10-11T14:59:21.571Z,11.92
2022-10-11T15:01:53.804Z,11.85
2022-10-11T15:04:26.585Z,11.77
2022-10-11T15:06:55.145Z,11.70
2022-10-11T15:09:30.762Z,11.73
2022-10-11T15:11:58.510Z,11.67
2022-10-11T15:14:26.001Z,11.64
2022-10-11T15:16:54.498Z,11.59
2022-10-11T15:19:24.222Z,11.54
2022-10-11T15:21:51.767Z,11.49
2022-10-11T15:24:22.301Z,11.44
2022-10-11T15:26:49.592Z,11.29
2022-10-11T15:29:22.083Z,11.15
2022-10-11T15:31:49.742Z,11.06
2022-10-11T15:34:17.355Z,10.98
2022-10-11T15:36:44.590Z,10.97
2022-10-11T15:39:27.149Z,10.90
2022-10-11T15:41:54.721Z,10.79
2022-10-11T15:44:21.678Z,10.74
2022-10-11T15:46:48.955Z,10.66
2022-10-11T15:49:17.064Z,10.56
2022-10-11T15:51:44.305Z,10.49
2022-10-11T15:54:11.227Z,10.42
2022-10-11T15:56:38.504Z,10.35
2022-10-11T15:59:05.722Z,10.30
2022-10-11T16:01:33.415Z,10.22
2022-10-11T16:04:01.166Z,10.19
2022-10-11T16:06:28.702Z,10.16
2022-10-11T16:08:55.752Z,10.10
2022-10-11T16:11:22.859Z,10.12
2022-10-11T16:13:49.816Z,10.06
2022-10-11T16:16:16.971Z,10.01
2022-10-11T16:18:43.887Z,9.99
2022-10-11T16:21:13.046Z,9.91
2022-10-11T16:23:40.175Z,9.88
2022-10-11T16:26:11.216Z,9.81
2022-10-11T16:28:38.666Z,9.75
2022-10-11T16:31:24.457Z,9.69
2022-10-11T16:33:53.071Z,9.63
2022-10-11T16:36:41.123Z,9.60
2022-10-11T16:39:16.617Z,9.55
2022-10-11T16:41:44.719Z,9.52
2022-10-11T16:44:20.106Z,9.45
2022-10-11T16:46:48.562Z,9.39
2022-10-11T16:49:22.144Z,9.34
2022-10-11T16:51:50.211Z,9.32
2022-10-11T16:54:20.560Z,9.25
2022-10-11T16:56:49.434Z,9.21
2022-10-11T16:59:16.776Z,9.19
2022-10-11T17:01:45.229Z,9.16
2022-10-11T17:04:13.028Z,9.12
2022-10-11T17:06:40.413Z,9.10
2022-10-11T17:09:07.410Z,9.07
2022-10-11T17:11:34.493Z,9.04
2022-10-11T17:14:02.095Z,9.02
2022-10-11T17:16:29.191Z,8.99
2022-10-11T17:18:56.246Z,8.99
2022-10-11T17:21:24.339Z,8.96
2022-10-11T17:23:51.517Z,8.92
2022-10-11T17:26:26.316Z,8.88
2022-10-11T17:28:54.978Z,8.87
2022-10-11T17:31:22.690Z,8.82
2022-10-11T17:33:50.175Z,8.83
2022-10-11T17:36:23.981Z,8.91
2022-10-11T17:38:53.103Z,8.93
2022-10-11T17:41:21.181Z,8.94
2022-10-11T17:43:48.289Z,8.97
2022-10-11T17:46:16.425Z,9.00
2022-10-11T17:48:44.772Z,8.98
2022-10-11T17:51:14.787Z,8.96
2022-10-11T17:53:42.148Z,8.94
2022-10-11T17:56:11.763Z,8.95
2022-10-11T17:58:39.335Z,8.92
2022-10-11T18:01:10.829Z,8.90
2022-10-11T18:03:38.647Z,8.89
2022-10-11T18:06:08.076Z,8.88
2022-10-11T18:08:40.188Z,8.96
2022-10-11T18:11:16.284Z,9.02
2022-10-11T18:13:46.527Z,9.02
2022-10-11T18:16:16.402Z,8.95
2022-10-11T18:18:44.322Z,8.92
2022-10-11T18:21:19.120Z,8.86
2022-10-11T18:23:48.118Z,8.85
2022-10-11T18:26:20.870Z,8.81
2022-10-11T18:28:48.633Z,8.81
2022-10-11T18:31:20.327Z,8.84
2022-10-11T18:33:48.711Z,8.80
2022-10-11T18:36:17.865Z,8.80
2022-10-11T18:38:49.474Z,8.74
2022-10-11T18:41:19.601Z,8.68
2022-10-11T18:43:55.082Z,8.64
2022-10-11T18:46:23.486Z,8.67
2022-10-11T18:48:52.254Z,8.64
2022-10-11T18:51:20.199Z,8.61
2022-10-11T18:53:48.103Z,8.59
2022-10-11T18:56:17.174Z,8.60
2022-10-11T18:58:44.861Z,8.60
2022-10-11T19:01:17.855Z,8.58
2022-10-11T19:03:46.161Z,8.56
2022-10-11T19:06:18.964Z,8.51
2022-10-11T19:08:59.428Z,8.50
2022-10-11T19:11:27.301Z,8.48
2022-10-11T19:14:14.929Z,8.50
2022-10-11T19:16:49.677Z,8.53
2022-10-11T19:19:20.810Z,8.52
2022-10-11T19:21:49.021Z,8.47
2022-10-11T19:24:17.650Z,8.43
2022-10-11T19:26:45.781Z,8.41
2022-10-11T19:29:15.473Z,8.42
2022-10-11T19:31:45.653Z,8.42
2022-10-11T19:34:13.502Z,8.42
2022-10-11T19:36:42.924Z,8.37
2022-10-11T19:39:17.991Z,8.33
2022-10-11T19:41:45.389Z,8.29
2022-10-11T19:44:13.743Z,8.24
2022-10-11T19:47:00.223Z,8.17
2022-10-11T19:49:29.625Z,8.13
2022-10-11T19:51:56.830Z,8.09
2022-10-11T19:54:24.191Z,8.08
2022-10-11T19:56:51.506Z,8.11
2022-10-11T19:59:18.976Z,8.08
2022-10-11T20:01:51.913Z,8.02
2022-10-11T20:04:50.492Z,8.02
2022-10-11T20:07:07.394Z,8.03
2022-10-11T20:09:34.515Z,8.00
2022-10-11T20:12:02.418Z,7.98
2022-10-11T20:14:29.846Z,8.02
2022-10-11T20:16:57.792Z,8.03
2022-10-11T20:19:31.404Z,8.00
2022-10-11T20:22:00.144Z,7.99
2022-10-11T20:24:29.959Z,7.99
2022-10-11T20:26:57.285Z,7.99
2022-10-11T20:29:27.867Z,7.95
2022-10-11T20:31:56.613Z,7.97
2022-10-11T20:34:23.808Z,7.94
2022-10-11T20:36:51.090Z,7.94
2022-10-11T20:39:18.344Z,7.94
2022-10-11T20:41:45.641Z,7.93
2022-10-11T20:44:16.094Z,7.92
2022-10-11T20:46:43.441Z,7.92
2022-10-11T20:49:11.914Z,8.00
2022-10-11T20:51:41.561Z,8.09
2022-10-11T20:54:09.578Z,8.21
2022-10-11T20:56:37.561Z,8.29
2022-10-11T20:59:05.483Z,8.34
2022-10-11T21:01:37.178Z,8.43
2022-10-11T21:04:04.722Z,8.57
2022-10-11T21:06:32.565Z,8.63
2022-10-11T21:09:00.306Z,8.66
2022-10-11T21:11:32.125Z,8.71
2022-10-11T21:14:01.485Z,8.77
2022-10-11T21:16:28.784Z,8.78
2022-10-11T21:18:57.521Z,8.79
2022-10-11T21:21:25.811Z,8.71
2022-10-11T21:23:57.096Z,8.61
2022-10-11T21:26:24.603Z,8.52
2022-10-11T21:28:51.898Z,8.43
2022-10-11T21:31:20.594Z,8.36
2022-10-11T21:33:48.045Z,8.34
2022-10-11T21:36:17.554Z,8.33
2022-10-11T21:38:45.027Z,8.37
2022-10-11T21:41:14.346Z,8.39
2022-10-11T21:43:41.746Z,8.45
2022-10-11T21:46:20.148Z,8.50
2022-10-11T21:48:47.787Z,8.59
2022-10-11T21:51:16.897Z,8.65
2022-10-11T21:53:43.904Z,8.70
2022-10-11T21:56:10.837Z,8.75
2022-10-11T21:58:37.965Z,8.77
2022-10-11T22:01:05.501Z,8.78
2022-10-11T22:03:32.623Z,8.83
2022-10-11T22:06:03.040Z,8.86
2022-10-11T22:08:30.453Z,8.89
2022-10-11T22:10:59.327Z,8.89
2022-10-11T22:13:27.833Z,8.90
2022-10-11T22:15:58.155Z,8.87
2022-10-11T22:18:25.613Z,8.87
2022-10-11T22:20:52.746Z,8.90
2022-10-11T22:23:19.903Z,8.88
2022-10-11T22:25:46.847Z,8.90
2022-10-11T22:28:14.685Z,8.88
2022-10-11T22:30:42.141Z,8.85
2022-10-11T22:33:09.288Z,8.81
2022-10-11T22:35:37.881Z,8.76
2022-10-11T22:38:06.397Z,8.68
2022-10-11T22:40:33.730Z,8.59
2022-10-11T22:43:00.883Z,8.50
2022-10-11T22:45:27.890Z,8.43
2022-10-11T22:47:54.944Z,8.37
2022-10-11T22:50:21.986Z,8.31
2022-10-11T22:52:48.926Z,8.28
2022-10-11T22:55:19.952Z,8.23
2022-10-11T22:57:47.410Z,8.16
2022-10-11T23:00:14.788Z,8.12
2022-10-11T23:02:41.945Z,8.07
2022-10-11T23:05:09.023Z,8.02
2022-10-11T23:07:36.664Z,8.02
2022-10-11T23:10:04.367Z,7.99
2022-10-11T23:12:31.424Z,7.96
2022-10-11T23:14:58.967Z,7.96
2022-10-11T23:17:25.907Z,7.99
2022-10-11T23:19:53.079Z,8.10
2022-10-11T23:22:20.111Z,8.20
2022-10-11T23:24:47.354Z,8.33
2022-10-11T23:27:14.563Z,8.43
2022-10-11T23:29:41.789Z,8.52
2022-10-11T23:32:09.104Z,8.58
2022-10-11T23:34:36.224Z,8.63
2022-10-11T23:37:03.788Z,8.62
2022-10-11T23:39:30.890Z,8.64
2022-10-11T23:41:57.873Z,8.65
2022-10-11T23:44:25.046Z,8.68
2022-10-11T23:46:52.214Z,8.74
2022-10-11T23:49:19.225Z,8.76
2022-10-11T23:51:46.224Z,8.79
2022-10-11T23:54:13.204Z,8.79
2022-10-11T23:56:40.233Z,8.77
2022-10-11T23:59:07.205Z,8.77
